Airfield :
LOGIN :

Register | Disclaimer

   EN    FR    IT 

 










Legend :    VFR   Marginal VFR   IFR   Intensive IFR   Very Intensive IFR
Visi :
Ceiling :
>= 8 km
>= 3000ft
5 to 8 km
1000 to 3000 ft
1500m to 5 km
500 to 1000 ft
800 to 1500m
200 to 500 ft
< 800m
< 200 ft
Symbols :   Thunderstorms  Fog  Heavy snow  Heavy precipitations  Wind > 20 kt
SIGMETs :     Misc.  Thunderstorms  Icing  Turbulence  Mountain Waves  Volcanic Ashes






- Airport Elevation : 512 ft
- IATA code : URO


LFOP - Rouen Vallée de Seine

CURRENT METAR :
  • 192200Z AUTO 00000KT 4200 BR BKN005/// BKN010/// OVC016/// ///CB 16/16 Q1009

EXPIRED METARs :
  • 192130Z AUTO VRB02KT 2600 +RA BR BKN002/// OVC010/// ///CB 16/16 Q1009
  • 192100Z AUTO 28004KT 4400 BR BKN002/// BKN014/// OVC029/// ///CB 16/16 Q1009
  • 192030Z AUTO 29004KT 5000 BR SCT002 BKN010 BKN033 17/16 Q1009
  • 192000Z AUTO 28005KT 9999 4600 BKN009 BKN140 17/16 Q1009 NOSIG
  • 191930Z AUTO 27003KT 250V320 9999 FEW007/// OVC140/// ///TCU 16/16 Q1009 TEMPO BKN006

TAF TAF LFOP
Valid from the 19 at 18:00 until the 20 at 18:00 UTC


191700Z 1918/2018 VRB03KT 9999 BKN015
TEMPO 1918/1922 BKN006
TEMPO 1922/2001 VRB15G25KT 2000 TSRA BKN006 BKN020CB
FM200100 20010KT 9999 SCT016
TEMPO 2001/2007 BKN007
BECMG 2007/2009 VRB03KT
ATIS : +33 2 35 80 80 34
Met : +33 2 32 86 52 80



MET'MAP, your aeronautical weather chart ! - Copyright ORBIFLY December 2007 - Disclaimer

ORBIFLY MET'MAP TEAM :

Programming & Development : Alexandra Zaïnal
Concept & original design : Baudouin d'Aumeries
Assistance for programming : Marc-Olivier Méhu
Technical & hardware support : Manuel Goepfert

Contact : metmap@orbifly.com




SOURCES & CREDITS :

   NOAA